Time;durP1;ratioP1;P1;durP2;ratioP2;P2;SDS_P1;SDS_P2;PMS_P1;PMS_P2;Temp;Humidity;BMP_temperature;BMP_pressure;BME280_temperature;BME280_humidity;BME280_pressure;Samples;Min_cycle;Max_cycle;Signal;HPM_P1;HPM_P2
2022/07/08 00:02:07;;;;;;;;;;;;;;;8.23;53.23;96679.00;5042133;28;20022;-66
2022/07/08 00:04:33;;;;;;;;;;;;;;;8.81;51.24;96677.34;5039770;28;19985;-66
2022/07/08 00:06:58;;;;;;;;;;;;;;;8.65;52.45;96675.28;5041766;28;20377;-68
2022/07/08 00:09:23;;;;;;;;;;;;;;;8.52;51.59;96677.34;5041163;28;19980;-66
2022/07/08 00:11:48;;;;;;;;;;;;;;;8.74;50.68;96673.56;5041143;28;20473;-66
2022/07/08 00:14:14;;;;;;;;;;;;;;;8.38;54.00;96675.94;5040421;28;20178;-66
2022/07/08 00:16:40;;;;;;;;;;;;;;;7.88;52.13;96665.25;5040264;28;19996;-66
2022/07/08 00:19:08;;;;;;;;;;;;;;;8.17;53.69;96671.59;5040463;28;19993;-65
2022/07/08 00:21:34;;;;;;;;;;;;;;;8.17;51.61;96661.81;5041118;28;20060;-66
2022/07/08 00:23:59;;;;;;;;;;;;;;;7.95;52.80;96670.03;5041138;28;20431;-66
2022/07/08 00:26:24;;;;;;;;;;;;;;;8.11;53.01;96667.69;5040341;28;19992;-66
2022/07/08 00:28:49;;;;;;;;;;;;;;;8.14;51.76;96667.41;5040821;28;20341;-65
2022/07/08 00:31:15;;;;;;;;;;;;;;;8.56;49.81;96670.78;5039724;28;20015;-65
2022/07/08 00:33:40;;;;;;;;;;;;;;;8.41;49.63;96668.56;5040599;28;19980;-65
2022/07/08 00:36:05;;;;;;;;;;;;;;;9.25;47.44;96662.78;5041405;28;19989;-66
2022/07/08 00:38:30;;;;;;;;;;;;;;;8.23;50.32;96673.69;5039467;28;20005;-66
2022/07/08 00:40:56;;;;;;;;;;;;;;;8.55;49.58;96669.97;5041746;28;19973;-67
2022/07/08 00:43:24;;;;;;;;;;;;;;;8.18;49.97;96668.81;5042002;28;19993;-66
2022/07/08 00:45:49;;;;;;;;;;;;;;;8.18;50.04;96678.56;5041140;28;20034;-66
2022/07/08 00:48:15;;;;;;;;;;;;;;;7.96;50.65;96669.84;5041765;28;19997;-66
2022/07/08 00:50:40;;;;;;;;;;;;;;;7.87;51.41;96675.97;5040988;28;20000;-66
2022/07/08 00:53:05;;;;;;;;;;;;;;;7.86;52.44;96674.31;5041746;28;19976;-66
2022/07/08 00:55:31;;;;;;;;;;;;;;;8.00;51.01;96671.28;5041117;28;20086;-66
2022/07/08 00:57:56;;;;;;;;;;;;;;;7.73;51.31;96674.50;5041274;28;20001;-65
2022/07/08 01:00:21;;;;;;;;;;;;;;;7.41;52.40;96673.66;5039493;28;20047;-65
2022/07/08 01:02:47;;;;;;;;;;;;;;;7.60;52.90;96669.44;5040632;28;20001;-66
2022/07/08 01:05:12;;;;;;;;;;;;;;;6.89;53.98;96677.13;5041532;28;20733;-66
2022/07/08 01:07:37;;;;;;;;;;;;;;;6.63;55.36;96670.41;5040900;28;19993;-65
2022/07/08 01:10:03;;;;;;;;;;;;;;;6.56;55.71;96678.97;5041680;28;19973;-66
2022/07/08 01:12:28;;;;;;;;;;;;;;;6.60;55.89;96683.88;5040101;28;20374;-66
2022/07/08 01:14:53;;;;;;;;;;;;;;;6.58;56.24;96685.81;5041418;28;20019;-66
2022/07/08 01:17:19;;;;;;;;;;;;;;;6.41;56.23;96689.81;5041338;28;20372;-66
2022/07/08 01:19:44;;;;;;;;;;;;;;;6.92;55.04;96695.41;5041404;28;20029;-66
2022/07/08 01:22:09;;;;;;;;;;;;;;;7.09;54.38;96687.84;5040773;28;19997;-66
2022/07/08 01:24:35;;;;;;;;;;;;;;;6.99;54.68;96690.44;5041523;28;20050;-65
2022/07/08 01:27:00;;;;;;;;;;;;;;;7.20;54.26;96692.22;5040434;28;19996;-66
2022/07/08 01:29:25;;;;;;;;;;;;;;;6.93;55.08;96691.78;5041846;28;20414;-66
2022/07/08 01:31:52;;;;;;;;;;;;;;;7.34;54.05;96685.78;5040979;28;20082;-66
2022/07/08 01:34:17;;;;;;;;;;;;;;;7.22;54.34;96691.16;5038579;28;19985;-66
2022/07/08 01:36:42;;;;;;;;;;;;;;;7.17;54.71;96687.22;5039513;28;19969;-66
2022/07/08 01:39:08;;;;;;;;;;;;;;;7.24;54.47;96685.72;5040608;28;19993;-66
2022/07/08 01:41:33;;;;;;;;;;;;;;;7.60;53.27;96685.34;5040869;28;20289;-66
2022/07/08 01:43:58;;;;;;;;;;;;;;;8.05;52.31;96686.78;5040714;28;19989;-66
2022/07/08 01:46:23;;;;;;;;;;;;;;;8.56;51.04;96684.91;5040580;28;19977;-66
2022/07/08 01:48:49;;;;;;;;;;;;;;;8.05;52.44;96695.59;5041222;28;20111;-65
2022/07/08 01:51:14;;;;;;;;;;;;;;;8.68;50.76;96696.22;5040134;28;20074;-66
2022/07/08 01:53:39;;;;;;;;;;;;;;;8.83;50.62;96698.47;5041122;28;20126;-66
2022/07/08 01:56:05;;;;;;;;;;;;;;;8.97;49.46;96707.84;5040509;28;19989;-66
2022/07/08 01:58:30;;;;;;;;;;;;;;;9.02;49.34;96710.94;5040976;28;20122;-66
2022/07/08 02:00:55;;;;;;;;;;;;;;;9.17;48.91;96707.81;5040714;28;20051;-66
2022/07/08 02:03:20;;;;;;;;;;;;;;;9.25;48.04;96702.63;5041060;28;20598;-66
2022/07/08 02:05:46;;;;;;;;;;;;;;;9.04;48.67;96698.34;5041098;28;20756;-66
2022/07/08 02:08:11;;;;;;;;;;;;;;;9.32;49.13;96705.56;5040875;28;19997;-66
2022/07/08 02:13:20;;;;;;;;;;;;;;;9.88;47.56;96718.97;5041244;28;19976;-65
2022/07/08 02:15:46;;;;;;;;;;;;;;;10.10;46.91;96709.78;5040751;28;19985;-66
2022/07/08 02:18:11;;;;;;;;;;;;;;;10.06;47.11;96716.38;5042109;28;19981;-66
2022/07/08 02:20:36;;;;;;;;;;;;;;;10.19;46.98;96721.38;5044179;28;19985;-66
2022/07/08 02:23:01;;;;;;;;;;;;;;;10.44;46.49;96716.31;5043924;28;20016;-66
2022/07/08 02:25:26;;;;;;;;;;;;;;;10.52;46.55;96720.91;5044327;28;19965;-67
2022/07/08 02:27:52;;;;;;;;;;;;;;;10.42;46.79;96715.63;5044022;28;20095;-67
2022/07/08 02:30:17;;;;;;;;;;;;;;;10.57;46.93;96715.13;5043601;28;19973;-66
2022/07/08 02:32:42;;;;;;;;;;;;;;;10.28;46.92;96711.66;5044733;28;20257;-65
2022/07/08 02:35:08;;;;;;;;;;;;;;;10.67;46.24;96720.38;5042412;28;19997;-66
2022/07/08 02:37:33;;;;;;;;;;;;;;;10.35;47.46;96723.41;5043215;28;19973;-66
2022/07/08 02:39:58;;;;;;;;;;;;;;;10.45;46.53;96719.81;5042312;28;20004;-66
2022/07/08 02:42:24;;;;;;;;;;;;;;;10.61;46.15;96719.16;5043542;28;19993;-65
2022/07/08 02:44:49;;;;;;;;;;;;;;;10.57;46.89;96723.94;5044817;28;19969;-66
2022/07/08 02:47:14;;;;;;;;;;;;;;;10.43;47.35;96716.44;5043279;28;19997;-66
2022/07/08 02:49:40;;;;;;;;;;;;;;;10.62;47.58;96713.66;5043770;28;19971;-68
2022/07/08 02:52:05;;;;;;;;;;;;;;;10.28;46.70;96721.47;5043843;28;20170;-66
2022/07/08 02:54:30;;;;;;;;;;;;;;;10.47;46.53;96725.81;5043272;28;19984;-67
2022/07/08 02:56:56;;;;;;;;;;;;;;;10.50;46.34;96722.84;5043056;28;19985;-67
2022/07/08 02:59:21;;;;;;;;;;;;;;;10.35;46.10;96722.53;5043195;28;20032;-67
2022/07/08 03:01:46;;;;;;;;;;;;;;;10.41;46.38;96715.78;5043706;28;20067;-66
2022/07/08 03:04:11;;;;;;;;;;;;;;;10.27;46.72;96717.13;5043351;28;20488;-66
2022/07/08 03:06:37;;;;;;;;;;;;;;;10.35;46.58;96725.22;5043422;28;19996;-65
2022/07/08 03:09:02;;;;;;;;;;;;;;;10.30;46.53;96722.97;5043814;28;19980;-66
2022/07/08 03:11:27;;;;;;;;;;;;;;;10.48;46.29;96724.84;5043747;28;20008;-66
2022/07/08 03:13:53;;;;;;;;;;;;;;;10.59;45.93;96721.97;5043912;28;19969;-66
2022/07/08 03:16:18;;;;;;;;;;;;;;;10.77;45.76;96715.81;5042240;28;20649;-67
2022/07/08 03:18:43;;;;;;;;;;;;;;;10.54;46.55;96723.41;5043134;28;20505;-67
2022/07/08 03:21:08;;;;;;;;;;;;;;;10.67;46.06;96717.72;5043783;28;20680;-66
2022/07/08 03:23:34;;;;;;;;;;;;;;;10.81;45.66;96735.81;5041153;28;20020;-66
2022/07/08 03:25:59;;;;;;;;;;;;;;;11.04;45.52;96724.69;5043377;28;19985;-66
2022/07/08 03:28:25;;;;;;;;;;;;;;;11.09;45.86;96727.75;5043077;28;20388;-65
2022/07/08 03:30:50;;;;;;;;;;;;;;;10.92;45.91;96725.94;5042679;28;19993;-66
2022/07/08 03:33:15;;;;;;;;;;;;;;;10.99;45.92;96719.81;5043576;28;19977;-66
2022/07/08 03:35:40;;;;;;;;;;;;;;;10.97;45.81;96723.63;5043126;28;20089;-67
2022/07/08 03:38:06;;;;;;;;;;;;;;;10.92;45.76;96732.09;5042988;28;20036;-66
2022/07/08 03:43:15;;;;;;;;;;;;;;;10.42;47.03;96730.75;5042764;28;20193;-66
2022/07/08 03:45:40;;;;;;;;;;;;;;;10.54;46.55;96723.41;5043345;28;19973;-66
2022/07/08 03:48:05;;;;;;;;;;;;;;;10.46;46.84;96726.81;5042766;28;20084;-66
2022/07/08 03:50:31;;;;;;;;;;;;;;;10.60;47.28;96728.13;5042774;28;19976;-66
2022/07/08 03:52:56;;;;;;;;;;;;;;;10.93;46.07;96732.91;5043106;28;20015;-66
2022/07/08 03:55:23;;;;;;;;;;;;;;;11.00;45.72;96726.00;5042811;28;19996;-67
2022/07/08 03:57:48;;;;;;;;;;;;;;;10.99;45.48;96735.81;5042754;28;19969;-66
2022/07/08 04:00:13;;;;;;;;;;;;;;;10.59;47.59;96737.09;5042207;28;19999;-66
2022/07/08 04:02:39;;;;;;;;;;;;;;;10.82;46.17;96739.31;5041959;28;20012;-66
2022/07/08 04:05:04;;;;;;;;;;;;;;;10.29;46.83;96742.59;5043263;28;19977;-67
2022/07/08 04:07:29;;;;;;;;;;;;;;;10.82;46.14;96748.16;5042582;28;19989;-66
2022/07/08 04:09:55;;;;;;;;;;;;;;;11.02;46.35;96740.03;5043184;28;20325;-66
2022/07/08 04:12:20;;;;;;;;;;;;;;;11.25;44.83;96743.06;5040512;28;20028;-66
2022/07/08 04:14:45;;;;;;;;;;;;;;;11.01;44.60;96746.31;5042745;28;19985;-67
2022/07/08 04:17:10;;;;;;;;;;;;;;;10.56;45.68;96748.03;5042380;28;20251;-66
2022/07/08 04:19:35;;;;;;;;;;;;;;;10.52;45.82;96750.19;5042338;28;20000;-66
2022/07/08 04:22:01;;;;;;;;;;;;;;;10.33;47.03;96749.31;5041292;28;20008;-66
2022/07/08 04:24:26;;;;;;;;;;;;;;;10.92;45.66;96765.91;5040643;28;20887;-65
2022/07/08 04:26:51;;;;;;;;;;;;;;;10.56;45.64;96766.69;5040514;28;20051;-67
2022/07/08 04:29:16;;;;;;;;;;;;;;;10.86;45.14;96764.66;5042719;28;19980;-66
2022/07/08 04:31:42;;;;;;;;;;;;;;;10.36;46.72;96767.66;5041502;28;19992;-66
2022/07/08 04:34:07;;;;;;;;;;;;;;;10.64;45.17;96771.28;5042546;28;20454;-66
2022/07/08 04:36:32;;;;;;;;;;;;;;;10.33;46.42;96775.94;5040285;28;20358;-66
2022/07/08 04:38:57;;;;;;;;;;;;;;;10.44;46.23;96771.41;5041717;28;20001;-66
2022/07/08 04:41:23;;;;;;;;;;;;;;;10.57;45.84;96777.19;5041045;28;20025;-66
2022/07/08 04:43:48;;;;;;;;;;;;;;;10.13;47.52;96785.00;5042222;28;19997;-66
2022/07/08 04:46:13;;;;;;;;;;;;;;;9.93;47.63;96785.84;5041636;28;20426;-67
2022/07/08 04:48:38;;;;;;;;;;;;;;;10.23;47.83;96788.44;5041725;28;20084;-66
2022/07/08 04:51:04;;;;;;;;;;;;;;;10.40;47.48;96794.78;5040717;28;19996;-67
2022/07/08 04:53:29;;;;;;;;;;;;;;;10.04;47.41;96798.16;5041882;28;19977;-67
2022/07/08 04:55:54;;;;;;;;;;;;;;;10.89;46.66;96796.34;5041043;28;19989;-66
2022/07/08 04:58:19;;;;;;;;;;;;;;;10.68;45.81;96793.97;5038814;28;20007;-66
2022/07/08 05:00:45;;;;;;;;;;;;;;;10.66;46.93;96795.91;5040492;28;20110;-67
2022/07/08 05:03:10;;;;;;;;;;;;;;;11.04;45.03;96791.31;5041370;28;20394;-66
2022/07/08 05:05:35;;;;;;;;;;;;;;;11.11;45.25;96795.09;5041744;28;20087;-66
2022/07/08 05:08:00;;;;;;;;;;;;;;;11.16;44.78;96794.63;5041067;28;20795;-66
2022/07/08 05:10:26;;;;;;;;;;;;;;;11.47;45.10;96798.72;5041362;28;20016;-66
2022/07/08 05:12:51;;;;;;;;;;;;;;;10.89;46.71;96812.34;5041511;28;20381;-66
2022/07/08 05:15:17;;;;;;;;;;;;;;;11.09;45.00;96798.91;5040800;28;20000;-66
2022/07/08 05:17:42;;;;;;;;;;;;;;;11.37;44.32;96804.97;5041609;28;20439;-66
2022/07/08 05:20:07;;;;;;;;;;;;;;;11.52;44.45;96801.75;5039421;28;19988;-66
2022/07/08 05:22:33;;;;;;;;;;;;;;;10.64;44.86;96798.72;5040289;28;20218;-67
2022/07/08 05:24:58;;;;;;;;;;;;;;;10.92;45.53;96809.38;5041705;28;20299;-66
2022/07/08 05:27:23;;;;;;;;;;;;;;;11.29;45.73;96809.41;5041142;28;20351;-66
2022/07/08 05:29:49;;;;;;;;;;;;;;;11.32;43.72;96809.91;5041335;28;19980;-66
2022/07/08 05:32:14;;;;;;;;;;;;;;;11.09;43.37;96814.88;5039921;28;20023;-66
2022/07/08 05:34:41;;;;;;;;;;;;;;;10.90;44.15;96823.81;5039731;28;19989;-67
2022/07/08 05:37:07;;;;;;;;;;;;;;;10.81;45.21;96821.06;5039795;28;20001;-66
2022/07/08 05:39:32;;;;;;;;;;;;;;;10.96;44.22;96823.22;5037253;28;20415;-67
2022/07/08 05:41:57;;;;;;;;;;;;;;;10.88;44.32;96827.47;5039311;28;20141;-67
2022/07/08 05:44:22;;;;;;;;;;;;;;;11.48;43.87;96827.03;5039446;28;20102;-66
2022/07/08 05:46:48;;;;;;;;;;;;;;;11.18;44.42;96826.47;5038974;28;19988;-67
2022/07/08 05:49:13;;;;;;;;;;;;;;;11.53;43.48;96827.44;5040872;28;19971;-67
2022/07/08 05:51:38;;;;;;;;;;;;;;;11.38;43.94;96822.66;5041169;28;20575;-66
2022/07/08 05:54:03;;;;;;;;;;;;;;;11.55;43.63;96832.59;5043372;28;20360;-67
2022/07/08 05:56:29;;;;;;;;;;;;;;;11.75;42.30;96834.09;5043331;28;20378;-66
2022/07/08 05:58:54;;;;;;;;;;;;;;;11.45;42.85;96832.69;5040929;28;20001;-66
2022/07/08 06:01:19;;;;;;;;;;;;;;;11.12;43.42;96841.25;5043839;28;20084;-67
2022/07/08 06:03:45;;;;;;;;;;;;;;;10.75;44.81;96845.66;5043483;28;20017;-66
2022/07/08 06:06:10;;;;;;;;;;;;;;;10.59;44.94;96851.59;5039706;28;19973;-70
2022/07/08 06:08:35;;;;;;;;;;;;;;;10.85;44.74;96851.75;5040508;28;20440;-66
2022/07/08 06:11:01;;;;;;;;;;;;;;;10.95;44.88;96854.34;5038017;28;20546;-66
2022/07/08 06:13:26;;;;;;;;;;;;;;;11.73;42.15;96853.94;5040559;28;20203;-68
2022/07/08 06:15:52;;;;;;;;;;;;;;;11.62;42.72;96860.31;5038001;28;20001;-66
2022/07/08 06:18:17;;;;;;;;;;;;;;;11.89;42.64;96861.19;5038652;28;19973;-66
2022/07/08 06:20:42;;;;;;;;;;;;;;;11.79;42.78;96863.97;5040177;28;19969;-66
2022/07/08 06:23:07;;;;;;;;;;;;;;;11.46;42.35;96877.88;5039419;28;20005;-66
2022/07/08 06:25:33;;;;;;;;;;;;;;;11.88;42.55;96871.06;5039113;28;20461;-66
2022/07/08 06:27:58;;;;;;;;;;;;;;;12.10;40.57;96873.41;5039802;28;20474;-66
2022/07/08 06:30:23;;;;;;;;;;;;;;;11.95;41.24;96873.09;5038534;28;20012;-66
2022/07/08 06:32:48;;;;;;;;;;;;;;;11.33;41.56;96877.41;5039805;28;19997;-66
2022/07/08 06:35:14;;;;;;;;;;;;;;;11.11;43.26;96871.53;5039520;28;19997;-66
2022/07/08 06:37:39;;;;;;;;;;;;;;;10.56;43.45;96871.38;5039249;28;19980;-67
2022/07/08 06:40:05;;;;;;;;;;;;;;;10.53;43.73;96871.66;5037270;28;20001;-66
2022/07/08 06:42:30;;;;;;;;;;;;;;;11.12;42.97;96865.22;5038066;28;20519;-66
2022/07/08 06:44:55;;;;;;;;;;;;;;;11.18;42.44;96861.13;5038738;28;20039;-66
2022/07/08 06:47:22;;;;;;;;;;;;;;;11.13;42.67;96862.38;5037709;28;20361;-66
2022/07/08 06:49:48;;;;;;;;;;;;;;;11.37;42.94;96879.63;5039042;28;19978;-66
2022/07/08 06:52:13;;;;;;;;;;;;;;;11.30;42.16;96873.22;5037270;28;19993;-66
2022/07/08 06:54:38;;;;;;;;;;;;;;;11.28;43.53;96880.53;5038465;28;19972;-66
2022/07/08 06:57:04;;;;;;;;;;;;;;;10.92;44.02;96877.78;5038769;28;19973;-66
2022/07/08 06:59:29;;;;;;;;;;;;;;;11.21;44.40;96868.78;5038047;28;20437;-66
2022/07/08 07:01:54;;;;;;;;;;;;;;;11.45;43.40;96870.00;5037846;28;20374;-66
2022/07/08 07:04:20;;;;;;;;;;;;;;;12.26;41.67;96878.00;5036844;28;20272;-66
2022/07/08 07:06:45;;;;;;;;;;;;;;;12.14;40.71;96874.75;5038603;28;20101;-67
2022/07/08 07:09:10;;;;;;;;;;;;;;;12.58;40.17;96878.31;5038759;28;19976;-66
2022/07/08 07:11:38;;;;;;;;;;;;;;;12.50;39.79;96866.59;5036854;28;19993;-67
2022/07/08 07:14:03;;;;;;;;;;;;;;;13.51;38.71;96870.41;5039179;28;19976;-67
2022/07/08 07:16:28;;;;;;;;;;;;;;;12.93;39.08;96863.91;5038756;28;20050;-66
2022/07/08 07:18:53;;;;;;;;;;;;;;;13.12;37.93;96870.00;5038093;28;20036;-66
2022/07/08 07:21:19;;;;;;;;;;;;;;;13.60;37.54;96874.75;5035817;28;20469;-66
2022/07/08 07:23:44;;;;;;;;;;;;;;;13.45;39.72;96882.59;5036000;28;20003;-66
2022/07/08 07:26:09;;;;;;;;;;;;;;;13.15;39.11;96880.38;5037204;28;20015;-65
2022/07/08 07:28:35;;;;;;;;;;;;;;;12.83;39.63;96889.97;5038182;28;20078;-66
2022/07/08 07:31:00;;;;;;;;;;;;;;;13.13;38.64;96885.06;5037424;28;20517;-66
2022/07/08 07:33:25;;;;;;;;;;;;;;;13.20;40.54;96895.09;5037327;28;20291;-67
2022/07/08 07:35:50;;;;;;;;;;;;;;;13.20;39.65;96890.59;5038745;28;20122;-66
2022/07/08 07:38:15;;;;;;;;;;;;;;;13.24;37.99;96901.78;5039704;28;19996;-66
2022/07/08 07:40:41;;;;;;;;;;;;;;;12.27;40.21;96907.19;5037915;28;19992;-66
2022/07/08 07:43:06;;;;;;;;;;;;;;;11.99;40.72;96898.47;5037056;28;20103;-66
2022/07/08 07:45:31;;;;;;;;;;;;;;;12.48;40.79;96892.63;5038578;28;20024;-66
2022/07/08 07:47:56;;;;;;;;;;;;;;;12.65;40.69;96896.22;5038411;28;20376;-66
2022/07/08 07:50:22;;;;;;;;;;;;;;;13.03;40.28;96900.41;5038937;28;19978;-66
2022/07/08 07:52:47;;;;;;;;;;;;;;;12.90;39.26;96901.69;5036711;28;19965;-65
2022/07/08 07:55:12;;;;;;;;;;;;;;;12.49;41.12;96905.00;5040959;28;20430;-66
2022/07/08 07:57:37;;;;;;;;;;;;;;;12.02;41.58;96899.00;5042028;28;20446;-66
2022/07/08 08:00:08;;;;;;;;;;;;;;;12.37;40.66;96904.41;5041665;28;19996;-68
2022/07/08 08:02:34;;;;;;;;;;;;;;;12.15;40.77;96908.47;5040830;28;20091;-66
2022/07/08 08:04:59;;;;;;;;;;;;;;;12.40;42.75;96909.44;5041478;28;20056;-66
2022/07/08 08:07:24;;;;;;;;;;;;;;;12.85;39.03;96908.50;5042561;28;20028;-67
2022/07/08 08:09:49;;;;;;;;;;;;;;;13.92;37.71;96904.41;5037619;28;19965;-65
2022/07/08 08:12:14;;;;;;;;;;;;;;;13.70;38.52;96915.56;5037254;28;19992;-75
2022/07/08 08:14:40;;;;;;;;;;;;;;;13.40;37.78;96912.53;5040554;28;20462;-75
2022/07/08 08:17:05;;;;;;;;;;;;;;;12.86;39.71;96924.38;5042968;28;20151;-76
2022/07/08 08:19:31;;;;;;;;;;;;;;;13.60;37.15;96917.56;5040502;28;20074;-75
2022/07/08 08:21:57;;;;;;;;;;;;;;;13.57;38.88;96920.59;5042634;28;20485;-75
2022/07/08 08:24:22;;;;;;;;;;;;;;;13.50;38.66;96922.25;5042108;28;20075;-75
2022/07/08 08:26:47;;;;;;;;;;;;;;;13.65;39.19;96920.59;5041692;28;20177;-75
2022/07/08 08:29:13;;;;;;;;;;;;;;;14.26;36.59;96911.41;5042067;28;20408;-76
2022/07/08 08:31:38;;;;;;;;;;;;;;;14.91;36.94;96908.72;5039483;28;20003;-76
2022/07/08 08:34:03;;;;;;;;;;;;;;;13.98;37.76;96924.31;5038394;28;20388;-76
2022/07/08 08:36:28;;;;;;;;;;;;;;;14.41;37.56;96919.56;5039642;28;19989;-76
2022/07/08 08:38:54;;;;;;;;;;;;;;;14.18;37.01;96922.94;5021896;28;20012;-76
2022/07/08 08:41:19;;;;;;;;;;;;;;;14.13;36.57;96922.63;5040416;28;19973;-75
2022/07/08 08:43:44;;;;;;;;;;;;;;;14.07;37.01;96926.81;5040234;28;19994;-75
2022/07/08 08:46:10;;;;;;;;;;;;;;;13.80;39.61;96919.91;5041747;28;19969;-75
2022/07/08 08:48:38;;;;;;;;;;;;;;;13.96;37.65;96927.16;5038448;28;19992;-75
2022/07/08 08:51:05;;;;;;;;;;;;;;;13.70;39.78;96928.09;5041649;28;20084;-75
2022/07/08 08:53:37;;;;;;;;;;;;;;;14.63;36.00;96910.97;5039254;28;19965;-76
2022/07/08 08:56:02;;;;;;;;;;;;;;;15.00;37.22;96912.22;5039447;28;20046;-76
2022/07/08 08:58:28;;;;;;;;;;;;;;;15.36;35.31;96903.63;5039424;28;19981;-75
2022/07/08 09:00:53;;;;;;;;;;;;;;;15.13;35.88;96908.13;5040067;28;19969;-75
2022/07/08 09:03:18;;;;;;;;;;;;;;;14.98;35.94;96909.72;5039906;28;20005;-75
2022/07/08 09:05:44;;;;;;;;;;;;;;;15.14;35.22;96910.66;5040133;28;19976;-75
2022/07/08 09:08:09;;;;;;;;;;;;;;;15.91;34.67;96899.25;5040101;28;19993;-75
2022/07/08 09:10:34;;;;;;;;;;;;;;;16.35;33.91;96908.47;5041521;28;20059;-76
2022/07/08 09:13:00;;;;;;;;;;;;;;;16.79;33.31;96904.09;5041757;28;20047;-76
2022/07/08 09:15:44;;;;;;;;;;;;;;;16.84;34.09;96904.38;5041570;28;20400;-75
2022/07/08 09:18:10;;;;;;;;;;;;;;;16.38;32.45;96908.91;5039938;28;19969;-75
2022/07/08 09:20:45;;;;;;;;;;;;;;;16.67;31.12;96895.69;5039960;28;20039;-75
2022/07/08 09:23:11;;;;;;;;;;;;;;;15.70;34.60;96912.31;5041024;28;20027;-76
2022/07/08 09:25:36;;;;;;;;;;;;;;;15.46;36.17;96899.88;5039590;28;19965;-75
2022/07/08 09:28:01;;;;;;;;;;;;;;;15.49;33.45;96899.53;5042534;28;20353;-76
2022/07/08 09:30:27;;;;;;;;;;;;;;;16.25;33.27;96904.13;5027245;28;20024;-75
2022/07/08 09:32:59;;;;;;;;;;;;;;;15.42;34.72;96911.97;5043548;28;19969;-76
2022/07/08 09:35:35;;;;;;;;;;;;;;;15.83;33.83;96905.50;5042668;28;20041;-75
2022/07/08 09:38:06;;;;;;;;;;;;;;;16.25;33.15;96906.00;5041965;28;20030;-75
2022/07/08 09:40:32;;;;;;;;;;;;;;;16.51;32.59;96908.28;5041296;28;19989;-75
2022/07/08 09:42:59;;;;;;;;;;;;;;;15.83;35.10;96902.81;5042969;28;20026;-75
2022/07/08 09:45:28;;;;;;;;;;;;;;;15.98;33.43;96905.56;5043249;28;20022;-74
2022/07/08 09:47:59;;;;;;;;;;;;;;;16.28;34.16;96908.31;5026937;28;19997;-75
2022/07/08 09:50:30;;;;;;;;;;;;;;;15.91;33.43;96896.56;5043051;28;19969;-76
2022/07/08 09:52:56;;;;;;;;;;;;;;;16.57;32.63;96901.34;5025676;28;20019;-75
2022/07/08 09:55:21;;;;;;;;;;;;;;;17.09;31.39;96904.06;5025961;28;20028;-69
2022/07/08 09:57:46;;;;;;;;;;;;;;;17.07;31.28;96905.28;5045303;28;20210;-75
2022/07/08 10:00:12;;;;;;;;;;;;;;;16.75;34.49;96910.84;5024764;28;20036;-75
2022/07/08 10:02:38;;;;;;;;;;;;;;;15.99;33.51;96905.41;5042244;28;20004;-75
2022/07/08 10:05:03;;;;;;;;;;;;;;;16.50;33.10;96905.78;5043800;28;19976;-75
2022/07/08 10:07:28;;;;;;;;;;;;;;;17.23;32.17;96905.06;5042874;28;19999;-75
2022/07/08 10:09:54;;;;;;;;;;;;;;;17.56;32.11;96908.31;5042471;28;20432;-75
2022/07/08 10:12:19;;;;;;;;;;;;;;;17.86;29.96;96908.22;5044024;28;19993;-76
2022/07/08 10:14:44;;;;;;;;;;;;;;;17.49;30.60;96910.94;5026009;28;20508;-75
2022/07/08 10:17:10;;;;;;;;;;;;;;;17.87;30.89;96921.50;5043185;28;20076;-74
2022/07/08 10:19:38;;;;;;;;;;;;;;;17.90;30.38;96915.72;5044256;28;19996;-74
2022/07/08 10:22:03;;;;;;;;;;;;;;;18.07;32.23;96911.91;5026091;28;20001;-75
2022/07/08 10:24:28;;;;;;;;;;;;;;;18.02;30.92;96909.81;5025981;28;19989;-76
2022/07/08 10:26:57;;;;;;;;;;;;;;;18.06;30.64;96908.41;5042456;28;20488;-75
2022/07/08 10:29:27;;;;;;;;;;;;;;;16.83;32.04;96908.06;5039669;28;19970;-75
2022/07/08 10:31:52;;;;;;;;;;;;;;;17.36;32.12;96899.00;5042313;28;19998;-76
2022/07/08 10:34:19;;;;;;;;;;;;;;;17.23;32.06;96917.72;5042316;28;20451;-76
2022/07/08 10:36:51;;;;;;;;;;;;;;;17.53;32.57;96926.53;5042275;28;20164;-75
2022/07/08 10:39:26;;;;;;;;;;;;;;;18.07;30.89;96920.00;5039790;28;20004;-76
2022/07/08 10:42:09;;;;;;;;;;;;;;;17.87;30.65;96913.41;5043044;28;19984;-75
2022/07/08 10:44:44;;;;;;;;;;;;;;;17.66;32.27;96915.06;5041901;28;19992;-75
2022/07/08 10:47:35;;;;;;;;;;;;;;;18.69;31.45;96910.31;5043326;28;19986;-74
2022/07/08 10:50:07;;;;;;;;;;;;;;;18.84;29.29;96908.53;5042441;28;19958;-75
2022/07/08 10:52:33;;;;;;;;;;;;;;;18.90;29.49;96892.34;5042574;28;20014;-76
2022/07/08 10:55:09;;;;;;;;;;;;;;;17.72;34.27;96908.09;5041923;28;20034;-75
2022/07/08 10:57:35;;;;;;;;;;;;;;;18.04;32.65;96900.50;5040147;28;19980;-76
2022/07/08 11:00:04;;;;;;;;;;;;;;;18.12;29.97;96896.84;5021929;28;20535;-76
2022/07/08 11:02:29;;;;;;;;;;;;;;;18.67;32.03;96904.28;5039524;28;20820;-75
2022/07/08 11:04:54;;;;;;;;;;;;;;;18.24;32.39;96902.53;5038067;28;20008;-75
2022/07/08 11:09:51;;;;;;;;;;;;;;;18.63;30.81;96903.00;5040400;28;19972;-75
2022/07/08 11:12:19;;;;;;;;;;;;;;;18.44;30.16;96899.13;5039907;28;20367;-75
2022/07/08 11:14:45;;;;;;;;;;;;;;;18.72;31.36;96892.91;5026618;28;20410;-75
2022/07/08 11:17:20;;;;;;;;;;;;;;;18.57;30.28;96893.00;5043983;28;19971;-75
2022/07/08 11:19:45;;;;;;;;;;;;;;;19.50;30.20;96896.31;5042789;28;19988;-75
2022/07/08 11:22:10;;;;;;;;;;;;;;;18.94;30.27;96893.63;5040919;28;19983;-74
2022/07/08 11:24:37;;;;;;;;;;;;;;;19.74;27.75;96895.97;5041838;28;19990;-74
2022/07/08 11:27:02;;;;;;;;;;;;;;;20.00;30.35;96900.56;5041005;28;20021;-76
2022/07/08 11:29:27;;;;;;;;;;;;;;;20.00;29.00;96900.56;5041874;28;20070;-76
2022/07/08 11:31:56;;;;;;;;;;;;;;;20.02;28.91;96903.88;5041460;28;19993;-75
2022/07/08 11:34:23;;;;;;;;;;;;;;;19.64;29.68;96901.78;5040074;28;19958;-75
2022/07/08 11:36:54;;;;;;;;;;;;;;;20.08;27.46;96900.38;5042249;28;19968;-76
2022/07/08 11:39:20;;;;;;;;;;;;;;;20.64;27.36;96900.13;5039177;28;19999;-75
2022/07/08 11:41:45;;;;;;;;;;;;;;;20.98;26.82;96900.81;5041757;28;20006;-75
2022/07/08 11:44:11;;;;;;;;;;;;;;;20.77;28.59;96904.66;5038220;28;19989;-76
2022/07/08 11:46:37;;;;;;;;;;;;;;;20.90;26.96;96898.38;5023921;28;20467;-76
2022/07/08 11:49:05;;;;;;;;;;;;;;;19.57;29.36;96899.03;5041159;28;20084;-75
2022/07/08 11:51:31;;;;;;;;;;;;;;;18.15;30.93;96906.41;5040626;28;19980;-75
2022/07/08 11:53:56;;;;;;;;;;;;;;;18.21;32.24;96900.22;5041380;28;20073;-75
2022/07/08 11:56:21;;;;;;;;;;;;;;;19.46;29.75;96893.22;5042429;28;20052;-75
2022/07/08 11:58:47;;;;;;;;;;;;;;;19.13;31.16;96898.47;5038759;28;19989;-75
2022/07/08 12:01:13;;;;;;;;;;;;;;;19.65;28.66;96898.84;5024180;28;19964;-76
2022/07/08 12:03:38;;;;;;;;;;;;;;;19.84;30.25;96894.50;5039472;28;20016;-75
2022/07/08 12:06:03;;;;;;;;;;;;;;;20.06;28.13;96880.81;5041053;28;19994;-75
2022/07/08 12:08:30;;;;;;;;;;;;;;;19.87;29.38;96889.72;5040560;28;20072;-75
2022/07/08 12:11:11;;;;;;;;;;;;;;;19.24;29.72;96887.09;5040062;28;20389;-75
2022/07/08 12:13:43;;;;;;;;;;;;;;;19.08;30.08;96882.91;5037005;28;19956;-75
2022/07/08 12:16:08;;;;;;;;;;;;;;;20.59;28.09;96883.66;5037122;28;19980;-75
2022/07/08 12:18:34;;;;;;;;;;;;;;;20.65;27.04;96884.72;5037258;28;20030;-76
2022/07/08 12:21:15;;;;;;;;;;;;;;;19.77;29.73;96880.16;5042087;28;20298;-75
2022/07/08 12:23:44;;;;;;;;;;;;;;;20.06;27.93;96872.69;5040082;28;20370;-76
2022/07/08 12:26:09;;;;;;;;;;;;;;;19.65;29.79;96879.13;5041307;28;20038;-74
2022/07/08 12:28:34;;;;;;;;;;;;;;;19.76;30.07;96878.50;5040218;28;19988;-78
2022/07/08 12:30:59;;;;;;;;;;;;;;;20.38;28.18;96884.72;5040530;28;20085;-79
2022/07/08 12:33:26;;;;;;;;;;;;;;;20.17;29.83;96881.22;5041594;28;19968;-79
2022/07/08 12:35:52;;;;;;;;;;;;;;;20.34;28.13;96877.06;5025184;28;19991;-79
2022/07/08 12:38:17;;;;;;;;;;;;;;;20.75;28.18;96874.28;5042725;28;20448;-78
2022/07/08 12:40:42;;;;;;;;;;;;;;;20.39;28.74;96881.00;5023793;28;19986;-78
2022/07/08 12:43:11;;;;;;;;;;;;;;;21.27;28.25;96859.06;5040893;28;20079;-78
2022/07/08 12:45:36;;;;;;;;;;;;;;;21.90;26.69;96871.78;5041052;28;19961;-79
2022/07/08 12:48:02;;;;;;;;;;;;;;;22.14;27.27;96872.03;5023141;28;20443;-78
2022/07/08 12:50:27;;;;;;;;;;;;;;;21.95;26.29;96871.16;5041113;28;19997;-78